createdAt,value
2023-04-05T00:02:24.797Z,-1.60
2023-04-05T00:04:54.842Z,-1.60
2023-04-05T00:07:22.289Z,-1.70
2023-04-05T00:09:49.678Z,-2.10
2023-04-05T00:12:16.647Z,-2.30
2023-04-05T00:14:43.597Z,-2.30
2023-04-05T00:17:12.001Z,-2.30
2023-04-05T00:19:39.525Z,-2.40
2023-04-05T00:22:06.484Z,-2.60
2023-04-05T00:24:34.018Z,-2.70
2023-04-05T00:27:01.448Z,-2.50
2023-04-05T00:29:28.509Z,-2.30
2023-04-05T00:31:56.209Z,-2.10
2023-04-05T00:34:23.370Z,-1.90
2023-04-05T00:36:50.527Z,-1.90
2023-04-05T00:39:17.361Z,-2.50
2023-04-05T00:41:46.387Z,-2.70
2023-04-05T00:44:14.530Z,-2.70
2023-04-05T00:46:42.126Z,-3.10
2023-04-05T00:49:09.523Z,-2.90
2023-04-05T00:51:38.068Z,-2.90
2023-04-05T00:54:05.397Z,-2.90
2023-04-05T00:56:32.848Z,-2.80
2023-04-05T00:58:59.812Z,-3.00
2023-04-05T01:01:28.081Z,-2.80
2023-04-05T01:04:03.236Z,-2.70
2023-04-05T01:07:09.391Z,-2.80
2023-04-05T01:09:56.038Z,-2.90
2023-04-05T01:12:27.354Z,-3.00
2023-04-05T01:14:55.603Z,-3.30
2023-04-05T01:17:24.680Z,-3.10
2023-04-05T01:19:59.015Z,-3.00
2023-04-05T01:23:01.587Z,-3.40
2023-04-05T01:25:59.988Z,-3.30
2023-04-05T01:28:38.642Z,-3.90
2023-04-05T01:31:36.737Z,-3.50
2023-04-05T01:34:32.769Z,-3.70
2023-04-05T01:37:07.636Z,-3.70
2023-04-05T01:39:36.580Z,-3.70
2023-04-05T01:42:04.600Z,-3.80
2023-04-05T01:44:31.742Z,-3.90
2023-04-05T01:46:58.605Z,-4.10
2023-04-05T01:49:25.572Z,-4.30
2023-04-05T01:51:52.519Z,-4.20
2023-04-05T01:54:19.303Z,-3.90
2023-04-05T01:56:46.263Z,-4.20
2023-04-05T01:59:13.194Z,-4.10
2023-04-05T02:01:40.054Z,-4.20
2023-04-05T02:04:07.105Z,-4.50
2023-04-05T02:06:34.006Z,-4.30
2023-04-05T02:09:00.834Z,-4.20
2023-04-05T02:11:27.644Z,-4.30
2023-04-05T02:13:54.468Z,-4.10
2023-04-05T02:16:21.333Z,-3.90
2023-04-05T02:18:51.047Z,-4.50
2023-04-05T02:21:18.112Z,-4.40
2023-04-05T02:23:45.016Z,-4.00
2023-04-05T02:26:11.942Z,-4.20
2023-04-05T02:28:38.715Z,-4.50
2023-04-05T02:31:12.511Z,-4.50
2023-04-05T02:33:40.055Z,-4.70
2023-04-05T02:36:09.484Z,-4.50
2023-04-05T02:38:36.677Z,-4.40
2023-04-05T02:41:03.715Z,-4.80
2023-04-05T02:43:30.711Z,-4.70
2023-04-05T02:45:57.553Z,-4.50
2023-04-05T02:48:24.443Z,-4.50
2023-04-05T02:50:51.668Z,-4.70
2023-04-05T02:53:18.791Z,-4.80
2023-04-05T02:55:55.685Z,-4.60
2023-04-05T02:58:23.551Z,-4.30
2023-04-05T03:00:53.050Z,-4.30
2023-04-05T03:03:23.769Z,-4.60
2023-04-05T03:06:00.508Z,-4.70
2023-04-05T03:08:28.796Z,-5.00
2023-04-05T03:10:55.637Z,-5.10
2023-04-05T03:13:22.418Z,-4.70
2023-04-05T03:15:53.365Z,-4.40
2023-04-05T03:18:20.654Z,-4.50
2023-04-05T03:20:50.066Z,-4.80
2023-04-05T03:23:17.100Z,-4.60
2023-04-05T03:25:44.581Z,-4.70
2023-04-05T03:28:11.521Z,-5.00
2023-04-05T03:30:38.324Z,-4.90
2023-04-05T03:33:05.669Z,-4.90
2023-04-05T03:35:32.681Z,-5.10
2023-04-05T03:37:59.603Z,-5.00
2023-04-05T03:40:26.478Z,-5.10
2023-04-05T03:42:53.373Z,-5.30
2023-04-05T03:45:23.997Z,-5.40
2023-04-05T03:47:51.817Z,-5.30
2023-04-05T03:50:18.832Z,-5.20
2023-04-05T03:52:46.458Z,-5.20
2023-04-05T03:55:17.016Z,-5.00
2023-04-05T03:57:43.860Z,-4.80
2023-04-05T04:00:14.817Z,-5.00
2023-04-05T04:02:46.566Z,-5.10
2023-04-05T04:05:14.553Z,-5.20
2023-04-05T04:07:42.218Z,-5.30
2023-04-05T04:10:12.362Z,-5.40
2023-04-05T04:12:39.503Z,-5.30
2023-04-05T04:15:07.125Z,-5.10
2023-04-05T04:17:36.253Z,-5.00
2023-04-05T04:20:11.411Z,-4.90
2023-04-05T04:22:40.307Z,-4.90
2023-04-05T04:25:11.866Z,-5.20
2023-04-05T04:27:42.003Z,-5.40
2023-04-05T04:30:11.553Z,-5.30
2023-04-05T04:32:53.610Z,-5.10
2023-04-05T04:35:35.023Z,-5.30
2023-04-05T04:38:05.022Z,-5.30
2023-04-05T04:40:38.893Z,-5.20
2023-04-05T04:43:05.792Z,-5.50
2023-04-05T04:45:34.941Z,-5.60
2023-04-05T04:48:05.016Z,-5.50
2023-04-05T04:50:32.615Z,-5.10
2023-04-05T04:53:00.281Z,-5.30
2023-04-05T04:55:27.590Z,-5.30
2023-04-05T04:57:55.425Z,-5.20
2023-04-05T05:00:24.267Z,-5.00
2023-04-05T05:02:52.607Z,-4.80
2023-04-05T05:05:23.593Z,-4.80
2023-04-05T05:07:52.803Z,-4.80
2023-04-05T05:10:20.448Z,-4.70
2023-04-05T05:12:48.821Z,-4.60
2023-04-05T05:15:15.700Z,-4.70
2023-04-05T05:17:42.993Z,-4.70
2023-04-05T05:20:11.368Z,-4.40
2023-04-05T05:22:39.381Z,-4.30
2023-04-05T05:25:07.417Z,-4.30
2023-04-05T05:27:34.219Z,-4.50
2023-04-05T05:30:01.319Z,-4.50
2023-04-05T05:32:28.329Z,-4.30
2023-04-05T05:34:55.253Z,-4.10
2023-04-05T05:37:32.977Z,-4.00
2023-04-05T05:40:00.329Z,-4.00
2023-04-05T05:42:27.662Z,-3.90
2023-04-05T05:44:54.459Z,-3.80
2023-04-05T05:47:21.802Z,-3.70
2023-04-05T05:49:49.836Z,-3.70
2023-04-05T05:52:17.092Z,-3.60
2023-04-05T05:54:43.978Z,-3.50
2023-04-05T05:57:10.911Z,-3.30
2023-04-05T05:59:37.721Z,-3.20
2023-04-05T06:02:04.504Z,-3.10
2023-04-05T06:04:31.443Z,-3.00
2023-04-05T06:06:58.504Z,-2.90
2023-04-05T06:09:25.825Z,-2.80
2023-04-05T06:11:56.822Z,-2.80
2023-04-05T06:14:24.617Z,-2.80
2023-04-05T06:16:51.419Z,-2.70
2023-04-05T06:19:18.245Z,-2.60
2023-04-05T06:21:45.213Z,-2.40
2023-04-05T06:24:12.022Z,-2.30
2023-04-05T06:26:38.780Z,-2.20
2023-04-05T06:29:06.254Z,-2.10
2023-04-05T06:31:34.979Z,-2.00
2023-04-05T06:34:01.890Z,-1.90
2023-04-05T06:36:32.079Z,-1.70
2023-04-05T06:38:59.604Z,-1.70
2023-04-05T06:41:27.706Z,-1.50
2023-04-05T06:43:55.553Z,-1.40
2023-04-05T06:46:23.650Z,-1.40
2023-04-05T06:48:51.724Z,-1.20
2023-04-05T06:51:19.135Z,-1.10
2023-04-05T06:53:46.503Z,-1.10
2023-04-05T06:56:13.619Z,-0.90
2023-04-05T06:58:40.635Z,-0.90
2023-04-05T07:01:07.861Z,-0.80
2023-04-05T07:03:34.904Z,-0.70
2023-04-05T07:06:03.365Z,-0.60
2023-04-05T07:08:32.074Z,-0.40
2023-04-05T07:10:59.624Z,-0.10
2023-04-05T07:13:26.638Z,-0.30
2023-04-05T07:16:01.231Z,-0.10
2023-04-05T07:18:30.182Z,-0.10
2023-04-05T07:21:02.329Z,-0.20
2023-04-05T07:23:29.733Z,-0.10
2023-04-05T07:26:05.185Z,0.00
2023-04-05T07:32:14.166Z,0.10
2023-04-05T07:35:28.189Z,0.30
2023-04-05T07:37:55.138Z,0.50
2023-04-05T07:40:22.005Z,0.40
2023-04-05T07:42:48.926Z,0.70
2023-04-05T07:45:15.773Z,0.90
2023-04-05T07:47:42.725Z,0.90
2023-04-05T07:50:11.845Z,1.00
2023-04-05T07:52:40.190Z,1.20
2023-04-05T07:55:09.086Z,0.80
2023-04-05T07:57:36.096Z,1.30
2023-04-05T08:00:04.930Z,1.40
2023-04-05T08:02:31.980Z,1.50
2023-04-05T08:04:59.109Z,1.60
2023-04-05T08:07:26.084Z,1.40
2023-04-05T08:09:53.894Z,1.40
2023-04-05T08:12:20.888Z,1.70
2023-04-05T08:14:48.091Z,1.40
2023-04-05T08:17:15.767Z,1.40
2023-04-05T08:19:42.688Z,1.40
2023-04-05T08:22:12.992Z,1.70
2023-04-05T08:24:41.121Z,1.90
2023-04-05T08:27:08.336Z,1.90
2023-04-05T08:29:35.323Z,2.00
2023-04-05T08:32:03.339Z,1.80
2023-04-05T08:34:30.490Z,1.90
2023-04-05T08:37:00.709Z,2.10
2023-04-05T08:39:27.799Z,2.40
2023-04-05T08:42:24.125Z,2.60
2023-04-05T08:44:52.932Z,2.90
2023-04-05T08:47:21.068Z,2.90
2023-04-05T08:49:48.932Z,2.60
2023-04-05T08:52:15.830Z,2.80
2023-04-05T08:54:42.836Z,2.70
2023-04-05T08:57:10.509Z,2.40
2023-04-05T08:59:41.077Z,2.60
2023-04-05T09:02:16.480Z,3.00
2023-04-05T09:04:45.125Z,3.30
2023-04-05T09:07:13.971Z,3.70
2023-04-05T09:09:44.621Z,4.00
2023-04-05T09:12:11.663Z,3.30
2023-04-05T09:14:39.299Z,3.40
2023-04-05T09:17:06.901Z,3.60
2023-04-05T09:19:33.742Z,4.00
2023-04-05T09:22:08.301Z,3.50
2023-04-05T09:24:43.892Z,3.50
2023-04-05T09:27:15.914Z,3.40
2023-04-05T09:29:45.371Z,3.70
2023-04-05T09:32:13.439Z,3.90
2023-04-05T09:34:41.795Z,3.70
2023-04-05T09:37:19.895Z,3.80
2023-04-05T09:39:49.848Z,4.10
2023-04-05T09:42:19.268Z,3.70
2023-04-05T09:44:53.328Z,4.50
2023-04-05T09:47:38.828Z,4.80
2023-04-05T09:50:11.489Z,4.60
2023-04-05T09:52:38.329Z,4.60
2023-04-05T09:55:07.251Z,4.90
2023-04-05T09:57:36.443Z,5.30
2023-04-05T10:00:05.845Z,5.30
2023-04-05T10:02:37.978Z,5.50
2023-04-05T10:05:13.962Z,5.50
2023-04-05T10:07:44.791Z,4.60
2023-04-05T10:10:13.106Z,5.00
2023-04-05T10:12:41.719Z,4.80
2023-04-05T10:15:09.605Z,5.00
2023-04-05T10:17:56.475Z,5.40
2023-04-05T10:20:24.802Z,5.40
2023-04-05T10:22:57.572Z,5.60
2023-04-05T10:25:43.016Z,6.00
2023-04-05T10:28:21.742Z,6.50
2023-04-05T10:30:52.153Z,6.10
2023-04-05T10:33:21.727Z,6.40
2023-04-05T10:36:03.300Z,6.40
2023-04-05T10:38:36.113Z,5.40
2023-04-05T10:41:16.566Z,5.40
2023-04-05T10:43:46.033Z,6.00
2023-04-05T10:46:20.119Z,5.90
2023-04-05T10:49:12.387Z,5.80
2023-04-05T10:51:39.784Z,6.10
2023-04-05T10:54:10.072Z,5.70
2023-04-05T10:56:38.930Z,5.80
2023-04-05T10:59:06.441Z,5.90
2023-04-05T11:01:33.635Z,6.00
2023-04-05T11:04:17.857Z,5.90
2023-04-05T11:06:48.113Z,6.20
2023-04-05T11:09:18.534Z,6.20
2023-04-05T11:11:47.653Z,7.10
2023-04-05T11:14:21.379Z,7.00
2023-04-05T11:16:53.317Z,6.50
2023-04-05T11:19:20.989Z,6.40
2023-04-05T11:21:47.896Z,6.20
2023-04-05T11:24:18.953Z,6.50
2023-04-05T11:26:48.936Z,6.90
2023-04-05T11:29:16.240Z,7.50
2023-04-05T11:32:00.008Z,7.50
2023-04-05T11:34:27.197Z,7.60
2023-04-05T11:36:54.081Z,8.10
2023-04-05T11:39:23.782Z,7.70
2023-04-05T11:42:01.970Z,7.20
2023-04-05T11:44:49.522Z,6.90
2023-04-05T11:47:23.058Z,7.00
2023-04-05T11:49:51.258Z,7.10
2023-04-05T11:52:22.443Z,7.60
2023-04-05T11:54:50.102Z,7.30
2023-04-05T11:57:23.326Z,7.10
2023-04-05T11:59:54.122Z,7.50
2023-04-05T12:02:21.595Z,7.80
2023-04-05T12:04:58.539Z,7.70
2023-04-05T12:07:29.745Z,8.50
2023-04-05T12:10:13.914Z,8.60
2023-04-05T12:12:42.624Z,9.00
2023-04-05T12:15:19.040Z,8.00
2023-04-05T12:17:50.516Z,7.90
2023-04-05T12:20:20.805Z,7.70
2023-04-05T12:22:48.996Z,7.30
2023-04-05T12:25:17.802Z,7.80
2023-04-05T12:27:45.250Z,7.90
2023-04-05T12:30:16.679Z,7.30
2023-04-05T12:32:46.297Z,7.40
2023-04-05T12:35:17.008Z,7.50
2023-04-05T12:37:44.465Z,7.40
2023-04-05T12:40:12.085Z,7.30
2023-04-05T12:42:40.618Z,7.30
2023-04-05T12:45:12.907Z,7.50
2023-04-05T12:48:00.376Z,7.60
2023-04-05T12:50:31.610Z,7.70
2023-04-05T12:53:00.234Z,7.50
2023-04-05T12:55:28.972Z,8.20
2023-04-05T12:57:59.655Z,7.70
2023-04-05T13:00:28.474Z,8.00
2023-04-05T13:02:56.869Z,8.20
2023-04-05T13:05:28.258Z,8.10
2023-04-05T13:07:55.482Z,8.20
2023-04-05T13:10:24.748Z,7.80
2023-04-05T13:12:51.816Z,8.60
2023-04-05T13:15:19.107Z,8.40
2023-04-05T13:17:49.760Z,7.90
2023-04-05T13:20:18.075Z,7.90
2023-04-05T13:22:46.145Z,7.50
2023-04-05T13:25:15.963Z,8.00
2023-04-05T13:27:43.413Z,8.10
2023-04-05T13:30:12.573Z,8.40
2023-04-05T13:32:39.513Z,9.10
2023-04-05T13:35:06.715Z,8.40
2023-04-05T13:37:33.579Z,8.60
2023-04-05T13:40:00.456Z,8.20
2023-04-05T13:42:27.386Z,9.00
2023-04-05T13:44:54.197Z,8.80
2023-04-05T13:47:21.168Z,8.90
2023-04-05T13:49:47.988Z,8.80
2023-04-05T13:52:14.962Z,8.90
2023-04-05T13:54:41.790Z,8.10
2023-04-05T13:57:08.591Z,8.30
2023-04-05T13:59:35.736Z,8.20
2023-04-05T14:02:34.953Z,8.30
2023-04-05T14:05:01.858Z,8.20
2023-04-05T14:07:44.110Z,9.40
2023-04-05T14:10:11.684Z,8.70
2023-04-05T14:12:39.344Z,9.10
2023-04-05T14:15:06.737Z,8.80
2023-04-05T14:17:33.752Z,8.40
2023-04-05T14:20:00.798Z,8.80
2023-04-05T14:22:27.748Z,8.40
2023-04-05T14:24:54.657Z,8.30
2023-04-05T14:27:26.689Z,8.30
2023-04-05T14:29:57.164Z,8.70
2023-04-05T14:32:27.137Z,9.30
2023-04-05T14:34:54.044Z,8.60
2023-04-05T14:37:21.006Z,8.40
2023-04-05T14:39:47.924Z,8.10
2023-04-05T14:42:14.842Z,8.30
2023-04-05T14:44:41.687Z,8.60
2023-04-05T14:47:08.513Z,9.40
2023-04-05T14:49:35.434Z,9.20
2023-04-05T14:52:02.533Z,8.80
2023-04-05T14:54:29.843Z,9.00
2023-04-05T14:56:56.883Z,8.40
2023-04-05T14:59:23.949Z,7.90
2023-04-05T15:01:51.011Z,7.60
2023-04-05T15:04:18.031Z,7.30
2023-04-05T15:06:44.861Z,7.40
2023-04-05T15:09:11.792Z,7.30
2023-04-05T15:11:39.557Z,7.20
2023-04-05T15:14:08.607Z,7.10
2023-04-05T15:16:38.255Z,7.20
2023-04-05T15:19:05.227Z,7.30
2023-04-05T15:21:32.762Z,7.30
2023-04-05T15:24:02.160Z,7.20
2023-04-05T15:26:29.046Z,7.10
2023-04-05T15:28:56.072Z,7.00
2023-04-05T15:31:23.002Z,6.90
2023-04-05T15:33:49.904Z,7.00
2023-04-05T15:36:16.742Z,7.10
2023-04-05T15:38:43.612Z,7.20
2023-04-05T15:41:10.484Z,7.10
2023-04-05T15:43:39.573Z,6.70
2023-04-05T15:46:06.528Z,6.60
2023-04-05T15:48:33.425Z,6.60
2023-04-05T15:51:00.338Z,6.60
2023-04-05T15:53:27.280Z,6.50
2023-04-05T15:55:54.252Z,6.50
2023-04-05T15:58:21.091Z,6.60
2023-04-05T16:00:48.030Z,6.60
2023-04-05T16:03:15.012Z,6.60
2023-04-05T16:05:42.017Z,6.60
2023-04-05T16:08:22.217Z,6.60
2023-04-05T16:10:49.115Z,6.40
2023-04-05T16:13:50.012Z,6.40
2023-04-05T16:16:30.007Z,6.30
2023-04-05T16:19:02.809Z,6.20
2023-04-05T16:21:31.064Z,6.20
2023-04-05T16:24:01.015Z,6.20
2023-04-05T16:26:27.921Z,6.10
2023-04-05T16:28:54.865Z,6.20
2023-04-05T16:31:21.854Z,6.20
2023-04-05T16:36:16.240Z,6.00
2023-04-05T16:38:45.005Z,5.90
2023-04-05T16:41:13.585Z,5.80
2023-04-05T16:43:40.570Z,5.80
2023-04-05T16:46:07.983Z,5.70
2023-04-05T16:48:35.118Z,5.70
2023-04-05T16:51:01.969Z,5.60
2023-04-05T16:53:30.237Z,5.50
2023-04-05T16:55:57.195Z,5.40
2023-04-05T16:58:24.224Z,5.40
2023-04-05T17:00:55.604Z,5.30
2023-04-05T17:03:22.662Z,5.20
2023-04-05T17:05:49.621Z,5.20
2023-04-05T17:08:16.457Z,5.20
2023-04-05T17:10:43.332Z,5.10
2023-04-05T17:13:10.212Z,5.00
2023-04-05T17:15:37.240Z,5.00
2023-04-05T17:18:04.411Z,4.90
2023-04-05T17:20:31.673Z,4.80
2023-04-05T17:22:58.634Z,4.80
2023-04-05T17:25:25.447Z,4.80
2023-04-05T17:27:52.320Z,4.70
2023-04-05T17:30:19.301Z,4.60
2023-04-05T17:32:46.244Z,4.60
2023-04-05T17:35:13.345Z,4.50
2023-04-05T17:37:40.373Z,4.50
2023-04-05T17:40:07.884Z,4.40
2023-04-05T17:42:34.788Z,4.40
2023-04-05T17:45:01.690Z,4.30
2023-04-05T17:47:28.653Z,4.20
2023-04-05T17:49:55.548Z,4.10
2023-04-05T17:52:22.788Z,4.10
2023-04-05T17:54:51.268Z,4.10
2023-04-05T17:57:18.367Z,4.00
2023-04-05T17:59:45.301Z,3.90
2023-04-05T18:02:12.413Z,4.00
2023-04-05T18:04:40.291Z,3.90
2023-04-05T18:07:08.042Z,4.00
2023-04-05T18:09:36.286Z,3.90
2023-04-05T18:12:03.588Z,3.70
2023-04-05T18:14:30.993Z,3.60
2023-04-05T18:16:59.266Z,3.50
2023-04-05T18:19:26.088Z,3.40
2023-04-05T18:22:49.865Z,3.30
2023-04-05T18:25:17.231Z,3.30
2023-04-05T18:28:19.430Z,3.30
2023-04-05T18:30:50.487Z,3.40
2023-04-05T18:33:18.329Z,3.10
2023-04-05T18:35:52.319Z,2.90
2023-04-05T18:38:19.759Z,2.70
2023-04-05T18:40:46.773Z,2.80
2023-04-05T18:43:13.867Z,2.80
2023-04-05T18:45:40.880Z,2.80
2023-04-05T18:48:07.905Z,2.80
2023-04-05T18:50:35.192Z,2.70
2023-04-05T18:53:02.415Z,2.70
2023-04-05T18:55:29.366Z,2.70
2023-04-05T18:57:56.264Z,2.70
2023-04-05T19:00:23.217Z,2.50
2023-04-05T19:02:50.326Z,2.40
2023-04-05T19:05:17.304Z,1.70
2023-04-05T19:07:44.152Z,1.50
2023-04-05T19:10:11.828Z,1.70
2023-04-05T19:12:38.664Z,1.30
2023-04-05T19:15:06.944Z,1.20
2023-04-05T19:17:34.046Z,1.20
2023-04-05T19:20:00.908Z,1.20
2023-04-05T19:22:27.723Z,1.30
2023-04-05T19:24:54.732Z,1.30
2023-04-05T19:27:21.532Z,1.00
2023-04-05T19:29:48.380Z,1.10
2023-04-05T19:32:15.602Z,1.10
2023-04-05T19:34:42.482Z,1.30
2023-04-05T19:37:09.360Z,1.20
2023-04-05T19:39:36.789Z,1.20
2023-04-05T19:42:04.700Z,1.10
2023-04-05T19:44:57.842Z,1.00
2023-04-05T19:47:25.909Z,0.70
2023-04-05T19:49:56.280Z,0.30
2023-04-05T19:52:49.016Z,0.40
2023-04-05T19:55:35.443Z,0.70
2023-04-05T19:58:07.378Z,0.70
2023-04-05T20:00:55.518Z,0.40
2023-04-05T20:03:30.253Z,0.30
2023-04-05T20:06:10.300Z,0.10
2023-04-05T20:08:43.858Z,0.00
2023-04-05T20:11:21.298Z,0.00
2023-04-05T20:13:50.990Z,0.00
2023-04-05T20:16:23.010Z,0.10
2023-04-05T20:18:49.944Z,0.30
2023-04-05T20:21:18.054Z,0.40
2023-04-05T20:23:45.524Z,0.40
2023-04-05T20:26:17.265Z,0.20
2023-04-05T20:28:54.642Z,0.10
2023-04-05T20:31:30.921Z,0.10
2023-04-05T20:34:26.633Z,-0.40
2023-04-05T20:36:58.188Z,-0.30
2023-04-05T20:39:25.540Z,-0.10
2023-04-05T20:41:53.013Z,-0.20
2023-04-05T20:44:19.961Z,-0.50
2023-04-05T20:46:46.781Z,-1.10
2023-04-05T20:49:13.637Z,-1.00
2023-04-05T20:51:42.673Z,-0.80
2023-04-05T20:54:10.189Z,-0.50
2023-04-05T20:56:37.114Z,-0.40
2023-04-05T20:59:04.157Z,-0.70
2023-04-05T21:01:31.294Z,-0.80
2023-04-05T21:03:58.192Z,-0.70
2023-04-05T21:06:25.011Z,-0.40
2023-04-05T21:08:51.814Z,-0.70
2023-04-05T21:11:18.600Z,-1.40
2023-04-05T21:13:45.557Z,-1.30
2023-04-05T21:16:12.457Z,-1.30
2023-04-05T21:18:39.416Z,-1.30
2023-04-05T21:21:06.358Z,-1.20
2023-04-05T21:23:34.527Z,-1.40
2023-04-05T21:26:01.727Z,-1.30
2023-04-05T21:28:28.542Z,-1.70
2023-04-05T21:30:55.557Z,-1.60
2023-04-05T21:33:22.631Z,-1.40
2023-04-05T21:35:50.780Z,-1.50
2023-04-05T21:38:18.060Z,-1.60
2023-04-05T21:40:45.064Z,-1.60
2023-04-05T21:43:13.233Z,-1.60
2023-04-05T21:45:40.285Z,-1.70
2023-04-05T21:48:07.306Z,-1.60
2023-04-05T21:50:34.217Z,-1.60
2023-04-05T21:53:01.051Z,-1.60
2023-04-05T21:55:27.954Z,-1.50
2023-04-05T21:57:54.843Z,-1.30
2023-04-05T22:00:22.461Z,-1.40
2023-04-05T22:02:49.292Z,-1.80
2023-04-05T22:05:29.616Z,-1.80
2023-04-05T22:08:03.769Z,-2.10
2023-04-05T22:10:30.737Z,-2.10
2023-04-05T22:12:57.574Z,-2.20
2023-04-05T22:15:24.481Z,-2.10
2023-04-05T22:17:51.339Z,-2.10
2023-04-05T22:20:18.314Z,-1.90
2023-04-05T22:22:45.173Z,-1.80
2023-04-05T22:25:12.066Z,-2.00
2023-04-05T22:27:39.537Z,-2.00
2023-04-05T22:30:08.297Z,-2.00
2023-04-05T22:32:36.093Z,-2.50
2023-04-05T22:35:04.490Z,-2.60
2023-04-05T22:37:35.597Z,-2.50
2023-04-05T22:40:03.811Z,-2.30
2023-04-05T22:42:30.824Z,-2.30
2023-04-05T22:44:57.738Z,-2.40
2023-04-05T22:47:24.701Z,-2.40
2023-04-05T22:49:52.229Z,-2.60
2023-04-05T22:52:19.068Z,-2.50
2023-04-05T22:54:46.046Z,-2.40
2023-04-05T22:57:13.114Z,-2.30
2023-04-05T22:59:40.086Z,-2.60
2023-04-05T23:02:07.052Z,-2.60
2023-04-05T23:04:33.890Z,-2.80
2023-04-05T23:07:00.906Z,-2.70
2023-04-05T23:09:27.950Z,-2.60
2023-04-05T23:11:54.832Z,-2.60
2023-04-05T23:14:21.797Z,-2.50
2023-04-05T23:16:48.698Z,-2.50
2023-04-05T23:19:16.526Z,-2.50
2023-04-05T23:21:43.389Z,-2.40
2023-04-05T23:24:11.003Z,-2.20
2023-04-05T23:26:38.123Z,-2.30
2023-04-05T23:29:04.956Z,-2.50
2023-04-05T23:31:31.911Z,-2.40
2023-04-05T23:33:58.807Z,-2.40
2023-04-05T23:36:25.975Z,-2.60
2023-04-05T23:38:52.795Z,-2.60
2023-04-05T23:41:19.680Z,-2.90
2023-04-05T23:43:46.525Z,-3.00
2023-04-05T23:46:13.608Z,-2.90
2023-04-05T23:48:40.556Z,-2.70
2023-04-05T23:51:07.549Z,-2.60
2023-04-05T23:53:34.503Z,-2.40
2023-04-05T23:56:01.497Z,-2.60
2023-04-05T23:58:28.398Z,-2.70
